sensor_id;sensor_type;location;lat;lon;timestamp;P1;durP1;ratioP1;P2;durP2;ratioP2
3066;SDS011;1544;48.834;9.194;2022-12-28T00:00:18;1.67;;;1.57;;
3066;SDS011;1544;48.834;9.194;2022-12-28T00:02:54;2.80;;;1.67;;
3066;SDS011;1544;48.834;9.194;2022-12-28T00:05:30;4.10;;;1.43;;
3066;SDS011;1544;48.834;9.194;2022-12-28T00:08:05;1.30;;;1.20;;
3066;SDS011;1544;48.834;9.194;2022-12-28T00:10:40;3.40;;;1.73;;
3066;SDS011;1544;48.834;9.194;2022-12-28T00:13:35;1.30;;;1.20;;
3066;SDS011;1544;48.834;9.194;2022-12-28T00:16:26;2.13;;;1.50;;
3066;SDS011;1544;48.834;9.194;2022-12-28T00:19:05;1.20;;;1.10;;
3066;SDS011;1544;48.834;9.194;2022-12-28T00:21:44;1.30;;;1.20;;
3066;SDS011;1544;48.834;9.194;2022-12-28T00:24:21;1.57;;;1.20;;
3066;SDS011;1544;48.834;9.194;2022-12-28T00:26:58;2.30;;;1.37;;
3066;SDS011;1544;48.834;9.194;2022-12-28T00:29:32;1.90;;;1.80;;
3066;SDS011;1544;48.834;9.194;2022-12-28T00:32:08;3.10;;;1.50;;
3066;SDS011;1544;48.834;9.194;2022-12-28T00:34:43;1.60;;;1.40;;
3066;SDS011;1544;48.834;9.194;2022-12-28T00:37:17;1.87;;;1.70;;
3066;SDS011;1544;48.834;9.194;2022-12-28T00:39:52;1.67;;;1.57;;
3066;SDS011;1544;48.834;9.194;2022-12-28T00:42:27;2.60;;;2.07;;
3066;SDS011;1544;48.834;9.194;2022-12-28T00:45:03;1.70;;;1.60;;
3066;SDS011;1544;48.834;9.194;2022-12-28T00:47:38;1.67;;;1.43;;
3066;SDS011;1544;48.834;9.194;2022-12-28T00:50:13;2.20;;;1.60;;
3066;SDS011;1544;48.834;9.194;2022-12-28T00:52:48;1.73;;;1.40;;
3066;SDS011;1544;48.834;9.194;2022-12-28T00:55:23;2.87;;;1.40;;
3066;SDS011;1544;48.834;9.194;2022-12-28T00:57:58;1.47;;;1.37;;
3066;SDS011;1544;48.834;9.194;2022-12-28T01:00:35;1.50;;;1.40;;
3066;SDS011;1544;48.834;9.194;2022-12-28T01:03:11;4.07;;;1.53;;
3066;SDS011;1544;48.834;9.194;2022-12-28T01:05:45;3.70;;;1.60;;
3066;SDS011;1544;48.834;9.194;2022-12-28T01:08:20;1.80;;;1.70;;
3066;SDS011;1544;48.834;9.194;2022-12-28T01:10:56;8.00;;;2.63;;
3066;SDS011;1544;48.834;9.194;2022-12-28T01:13:31;3.27;;;3.07;;
3066;SDS011;1544;48.834;9.194;2022-12-28T01:16:13;4.63;;;4.13;;
3066;SDS011;1544;48.834;9.194;2022-12-28T01:18:55;5.43;;;4.20;;
3066;SDS011;1544;48.834;9.194;2022-12-28T01:21:33;5.67;;;4.70;;
3066;SDS011;1544;48.834;9.194;2022-12-28T01:24:09;8.73;;;5.83;;
3066;SDS011;1544;48.834;9.194;2022-12-28T01:26:44;4.77;;;4.37;;
3066;SDS011;1544;48.834;9.194;2022-12-28T01:29:19;5.60;;;4.70;;
3066;SDS011;1544;48.834;9.194;2022-12-28T01:31:55;5.43;;;4.83;;
3066;SDS011;1544;48.834;9.194;2022-12-28T01:34:30;5.60;;;4.63;;
3066;SDS011;1544;48.834;9.194;2022-12-28T01:37:04;5.33;;;4.80;;
3066;SDS011;1544;48.834;9.194;2022-12-28T01:39:41;8.27;;;6.50;;
3066;SDS011;1544;48.834;9.194;2022-12-28T01:42:17;5.33;;;4.83;;
3066;SDS011;1544;48.834;9.194;2022-12-28T01:44:52;7.03;;;3.73;;
3066;SDS011;1544;48.834;9.194;2022-12-28T01:47:28;3.33;;;3.07;;
3066;SDS011;1544;48.834;9.194;2022-12-28T01:50:11;2.80;;;2.60;;
3066;SDS011;1544;48.834;9.194;2022-12-28T01:52:52;4.53;;;2.47;;
3066;SDS011;1544;48.834;9.194;2022-12-28T01:55:33;4.07;;;1.90;;
3066;SDS011;1544;48.834;9.194;2022-12-28T01:58:14;3.17;;;2.60;;
3066;SDS011;1544;48.834;9.194;2022-12-28T02:00:54;8.50;;;4.30;;
3066;SDS011;1544;48.834;9.194;2022-12-28T02:03:30;4.93;;;3.70;;
3066;SDS011;1544;48.834;9.194;2022-12-28T02:06:07;6.87;;;4.70;;
3066;SDS011;1544;48.834;9.194;2022-12-28T02:09:01;7.63;;;6.00;;
3066;SDS011;1544;48.834;9.194;2022-12-28T02:11:44;5.10;;;4.53;;
3066;SDS011;1544;48.834;9.194;2022-12-28T02:14:19;6.07;;;3.70;;
3066;SDS011;1544;48.834;9.194;2022-12-28T02:16:57;4.00;;;3.60;;
3066;SDS011;1544;48.834;9.194;2022-12-28T02:19:36;5.80;;;3.10;;
3066;SDS011;1544;48.834;9.194;2022-12-28T02:22:28;3.77;;;3.47;;
3066;SDS011;1544;48.834;9.194;2022-12-28T02:31:39;3.20;;;3.00;;
3066;SDS011;1544;48.834;9.194;2022-12-28T02:34:23;2.40;;;2.10;;
3066;SDS011;1544;48.834;9.194;2022-12-28T02:37:17;1.70;;;1.60;;
3066;SDS011;1544;48.834;9.194;2022-12-28T02:40:02;2.77;;;1.97;;
3066;SDS011;1544;48.834;9.194;2022-12-28T02:43:14;6.10;;;3.80;;
3066;SDS011;1544;48.834;9.194;2022-12-28T02:45:49;8.43;;;4.57;;
3066;SDS011;1544;48.834;9.194;2022-12-28T02:48:44;4.17;;;3.57;;
3066;SDS011;1544;48.834;9.194;2022-12-28T03:07:40;2.13;;;1.23;;
3066;SDS011;1544;48.834;9.194;2022-12-28T03:11:02;3.03;;;2.13;;
3066;SDS011;1544;48.834;9.194;2022-12-28T03:13:54;5.20;;;3.07;;
3066;SDS011;1544;48.834;9.194;2022-12-28T03:16:44;1.60;;;1.50;;
3066;SDS011;1544;48.834;9.194;2022-12-28T03:19:42;1.20;;;1.03;;
3066;SDS011;1544;48.834;9.194;2022-12-28T03:22:44;1.87;;;1.20;;
3066;SDS011;1544;48.834;9.194;2022-12-28T03:25:38;0.80;;;0.80;;
3066;SDS011;1544;48.834;9.194;2022-12-28T03:28:43;0.93;;;0.83;;
3066;SDS011;1544;48.834;9.194;2022-12-28T03:31:44;2.90;;;0.97;;
3066;SDS011;1544;48.834;9.194;2022-12-28T03:34:21;2.20;;;0.80;;
3066;SDS011;1544;48.834;9.194;2022-12-28T03:36:58;1.20;;;0.97;;
3066;SDS011;1544;48.834;9.194;2022-12-28T03:39:57;1.23;;;1.13;;
3066;SDS011;1544;48.834;9.194;2022-12-28T03:43:13;2.80;;;1.20;;
3066;SDS011;1544;48.834;9.194;2022-12-28T03:46:23;2.23;;;1.60;;
3066;SDS011;1544;48.834;9.194;2022-12-28T03:49:06;2.87;;;2.20;;
3066;SDS011;1544;48.834;9.194;2022-12-28T03:51:41;3.30;;;2.37;;
3066;SDS011;1544;48.834;9.194;2022-12-28T03:54:21;3.30;;;2.13;;
3066;SDS011;1544;48.834;9.194;2022-12-28T03:56:56;2.50;;;2.30;;
3066;SDS011;1544;48.834;9.194;2022-12-28T03:59:36;3.10;;;2.90;;
3066;SDS011;1544;48.834;9.194;2022-12-28T04:02:12;3.60;;;3.20;;
3066;SDS011;1544;48.834;9.194;2022-12-28T04:04:48;3.37;;;3.07;;
3066;SDS011;1544;48.834;9.194;2022-12-28T04:07:23;3.47;;;3.10;;
3066;SDS011;1544;48.834;9.194;2022-12-28T04:09:58;3.70;;;3.30;;
3066;SDS011;1544;48.834;9.194;2022-12-28T04:12:33;4.90;;;3.50;;
3066;SDS011;1544;48.834;9.194;2022-12-28T04:15:27;4.30;;;3.80;;
3066;SDS011;1544;48.834;9.194;2022-12-28T04:18:02;4.07;;;3.67;;
3066;SDS011;1544;48.834;9.194;2022-12-28T04:20:37;4.20;;;3.80;;
3066;SDS011;1544;48.834;9.194;2022-12-28T04:23:12;3.63;;;3.33;;
3066;SDS011;1544;48.834;9.194;2022-12-28T04:25:57;5.20;;;3.70;;
3066;SDS011;1544;48.834;9.194;2022-12-28T04:28:39;4.17;;;3.77;;
3066;SDS011;1544;48.834;9.194;2022-12-28T04:31:50;4.57;;;4.17;;
3066;SDS011;1544;48.834;9.194;2022-12-28T04:34:27;12.03;;;10.00;;
3066;SDS011;1544;48.834;9.194;2022-12-28T04:37:15;8.20;;;5.90;;
3066;SDS011;1544;48.834;9.194;2022-12-28T04:39:50;4.53;;;4.13;;
3066;SDS011;1544;48.834;9.194;2022-12-28T04:42:30;4.63;;;4.13;;
3066;SDS011;1544;48.834;9.194;2022-12-28T04:45:06;4.53;;;4.10;;
3066;SDS011;1544;48.834;9.194;2022-12-28T04:47:41;4.13;;;3.73;;
3066;SDS011;1544;48.834;9.194;2022-12-28T04:50:16;3.97;;;3.60;;
3066;SDS011;1544;48.834;9.194;2022-12-28T04:52:51;4.00;;;3.07;;
3066;SDS011;1544;48.834;9.194;2022-12-28T04:55:26;3.10;;;2.80;;
3066;SDS011;1544;48.834;9.194;2022-12-28T04:58:06;5.93;;;2.00;;
3066;SDS011;1544;48.834;9.194;2022-12-28T05:00:41;4.83;;;1.80;;
3066;SDS011;1544;48.834;9.194;2022-12-28T05:03:16;1.60;;;1.40;;
3066;SDS011;1544;48.834;9.194;2022-12-28T05:05:51;1.93;;;1.50;;
3066;SDS011;1544;48.834;9.194;2022-12-28T05:08:26;1.20;;;1.10;;
3066;SDS011;1544;48.834;9.194;2022-12-28T05:11:02;2.23;;;1.40;;
3066;SDS011;1544;48.834;9.194;2022-12-28T05:13:40;1.20;;;0.87;;
3066;SDS011;1544;48.834;9.194;2022-12-28T05:16:15;1.40;;;1.30;;
3066;SDS011;1544;48.834;9.194;2022-12-28T05:18:53;1.00;;;0.90;;
3066;SDS011;1544;48.834;9.194;2022-12-28T05:21:30;3.70;;;1.00;;
3066;SDS011;1544;48.834;9.194;2022-12-28T05:24:05;1.10;;;1.00;;
3066;SDS011;1544;48.834;9.194;2022-12-28T05:26:40;0.70;;;0.70;;
3066;SDS011;1544;48.834;9.194;2022-12-28T05:29:15;1.00;;;0.90;;
3066;SDS011;1544;48.834;9.194;2022-12-28T05:31:50;0.93;;;0.70;;
3066;SDS011;1544;48.834;9.194;2022-12-28T05:34:25;0.60;;;0.50;;
3066;SDS011;1544;48.834;9.194;2022-12-28T05:37:00;0.60;;;0.43;;
3066;SDS011;1544;48.834;9.194;2022-12-28T05:39:35;0.60;;;0.60;;
3066;SDS011;1544;48.834;9.194;2022-12-28T05:42:10;1.10;;;0.70;;
3066;SDS011;1544;48.834;9.194;2022-12-28T05:44:45;1.50;;;0.60;;
3066;SDS011;1544;48.834;9.194;2022-12-28T05:47:20;0.50;;;0.50;;
3066;SDS011;1544;48.834;9.194;2022-12-28T05:49:55;1.40;;;0.63;;
3066;SDS011;1544;48.834;9.194;2022-12-28T05:52:30;0.70;;;0.63;;
3066;SDS011;1544;48.834;9.194;2022-12-28T05:55:06;2.40;;;0.60;;
3066;SDS011;1544;48.834;9.194;2022-12-28T05:57:41;0.60;;;0.60;;
3066;SDS011;1544;48.834;9.194;2022-12-28T06:00:16;0.93;;;0.73;;
3066;SDS011;1544;48.834;9.194;2022-12-28T06:02:51;1.93;;;0.70;;
3066;SDS011;1544;48.834;9.194;2022-12-28T06:05:28;1.07;;;0.60;;
3066;SDS011;1544;48.834;9.194;2022-12-28T06:08:03;0.70;;;0.57;;
3066;SDS011;1544;48.834;9.194;2022-12-28T06:10:38;0.60;;;0.60;;
3066;SDS011;1544;48.834;9.194;2022-12-28T06:13:13;0.93;;;0.60;;
3066;SDS011;1544;48.834;9.194;2022-12-28T06:15:48;0.70;;;0.60;;
3066;SDS011;1544;48.834;9.194;2022-12-28T06:18:23;1.23;;;0.60;;
3066;SDS011;1544;48.834;9.194;2022-12-28T06:21:05;1.13;;;0.60;;
3066;SDS011;1544;48.834;9.194;2022-12-28T06:23:44;3.27;;;0.70;;
3066;SDS011;1544;48.834;9.194;2022-12-28T06:26:20;0.60;;;0.57;;
3066;SDS011;1544;48.834;9.194;2022-12-28T06:28:55;0.90;;;0.80;;
3066;SDS011;1544;48.834;9.194;2022-12-28T06:31:31;0.80;;;0.80;;
3066;SDS011;1544;48.834;9.194;2022-12-28T06:34:09;0.80;;;0.63;;
3066;SDS011;1544;48.834;9.194;2022-12-28T06:36:44;1.73;;;0.73;;
3066;SDS011;1544;48.834;9.194;2022-12-28T06:39:20;1.07;;;0.60;;
3066;SDS011;1544;48.834;9.194;2022-12-28T06:41:55;1.63;;;0.77;;
3066;SDS011;1544;48.834;9.194;2022-12-28T06:44:29;0.93;;;0.70;;
3066;SDS011;1544;48.834;9.194;2022-12-28T06:47:04;0.80;;;0.80;;
3066;SDS011;1544;48.834;9.194;2022-12-28T06:49:39;1.00;;;0.90;;
3066;SDS011;1544;48.834;9.194;2022-12-28T06:52:14;0.63;;;0.60;;
3066;SDS011;1544;48.834;9.194;2022-12-28T06:54:49;1.23;;;0.73;;
3066;SDS011;1544;48.834;9.194;2022-12-28T06:57:24;3.53;;;0.83;;
3066;SDS011;1544;48.834;9.194;2022-12-28T06:59:59;1.80;;;0.80;;
3066;SDS011;1544;48.834;9.194;2022-12-28T07:02:34;1.20;;;0.80;;
3066;SDS011;1544;48.834;9.194;2022-12-28T07:05:09;2.30;;;0.70;;
3066;SDS011;1544;48.834;9.194;2022-12-28T07:07:44;0.70;;;0.70;;
3066;SDS011;1544;48.834;9.194;2022-12-28T07:10:19;1.37;;;0.90;;
3066;SDS011;1544;48.834;9.194;2022-12-28T07:12:54;2.73;;;0.97;;
3066;SDS011;1544;48.834;9.194;2022-12-28T07:15:29;2.23;;;0.80;;
3066;SDS011;1544;48.834;9.194;2022-12-28T07:18:04;1.00;;;0.90;;
3066;SDS011;1544;48.834;9.194;2022-12-28T07:20:39;1.10;;;1.00;;
3066;SDS011;1544;48.834;9.194;2022-12-28T07:23:14;0.83;;;0.83;;
3066;SDS011;1544;48.834;9.194;2022-12-28T07:25:49;1.47;;;0.87;;
3066;SDS011;1544;48.834;9.194;2022-12-28T07:28:24;0.83;;;0.70;;
3066;SDS011;1544;48.834;9.194;2022-12-28T07:31:03;0.93;;;0.93;;
3066;SDS011;1544;48.834;9.194;2022-12-28T07:33:43;1.57;;;0.80;;
3066;SDS011;1544;48.834;9.194;2022-12-28T07:36:20;1.30;;;1.00;;
3066;SDS011;1544;48.834;9.194;2022-12-28T07:38:56;1.33;;;0.90;;
3066;SDS011;1544;48.834;9.194;2022-12-28T07:41:32;2.13;;;0.73;;
3066;SDS011;1544;48.834;9.194;2022-12-28T07:44:11;1.10;;;1.00;;
3066;SDS011;1544;48.834;9.194;2022-12-28T07:46:46;0.80;;;0.80;;
3066;SDS011;1544;48.834;9.194;2022-12-28T07:49:21;2.70;;;1.00;;
3066;SDS011;1544;48.834;9.194;2022-12-28T07:51:56;2.50;;;1.10;;
3066;SDS011;1544;48.834;9.194;2022-12-28T07:54:31;2.27;;;1.80;;
3066;SDS011;1544;48.834;9.194;2022-12-28T07:57:06;2.40;;;1.40;;
3066;SDS011;1544;48.834;9.194;2022-12-28T07:59:41;1.70;;;1.50;;
3066;SDS011;1544;48.834;9.194;2022-12-28T08:02:16;2.73;;;1.30;;
3066;SDS011;1544;48.834;9.194;2022-12-28T08:04:51;1.33;;;1.20;;
3066;SDS011;1544;48.834;9.194;2022-12-28T08:07:26;1.20;;;1.20;;
3066;SDS011;1544;48.834;9.194;2022-12-28T08:10:01;1.40;;;1.30;;
3066;SDS011;1544;48.834;9.194;2022-12-28T08:12:36;1.23;;;1.10;;
3066;SDS011;1544;48.834;9.194;2022-12-28T08:15:11;2.17;;;1.00;;
3066;SDS011;1544;48.834;9.194;2022-12-28T08:17:45;0.97;;;0.93;;
3066;SDS011;1544;48.834;9.194;2022-12-28T08:20:21;1.10;;;1.00;;
3066;SDS011;1544;48.834;9.194;2022-12-28T08:22:56;0.90;;;0.90;;
3066;SDS011;1544;48.834;9.194;2022-12-28T08:25:31;1.13;;;0.80;;
3066;SDS011;1544;48.834;9.194;2022-12-28T08:28:08;3.00;;;1.00;;
3066;SDS011;1544;48.834;9.194;2022-12-28T08:30:43;1.27;;;0.90;;
3066;SDS011;1544;48.834;9.194;2022-12-28T08:33:18;2.23;;;0.73;;
3066;SDS011;1544;48.834;9.194;2022-12-28T08:35:55;1.33;;;0.83;;
3066;SDS011;1544;48.834;9.194;2022-12-28T08:38:30;0.80;;;0.80;;
3066;SDS011;1544;48.834;9.194;2022-12-28T08:41:07;0.90;;;0.80;;
3066;SDS011;1544;48.834;9.194;2022-12-28T08:43:45;1.00;;;0.90;;
3066;SDS011;1544;48.834;9.194;2022-12-28T08:46:24;1.17;;;0.70;;
3066;SDS011;1544;48.834;9.194;2022-12-28T08:49:02;0.70;;;0.70;;
3066;SDS011;1544;48.834;9.194;2022-12-28T08:51:39;1.30;;;1.20;;
3066;SDS011;1544;48.834;9.194;2022-12-28T08:54:15;1.23;;;0.90;;
3066;SDS011;1544;48.834;9.194;2022-12-28T08:56:51;1.27;;;0.70;;
3066;SDS011;1544;48.834;9.194;2022-12-28T08:59:26;0.90;;;0.80;;
3066;SDS011;1544;48.834;9.194;2022-12-28T09:02:01;1.10;;;0.80;;
3066;SDS011;1544;48.834;9.194;2022-12-28T09:04:36;2.00;;;0.70;;
3066;SDS011;1544;48.834;9.194;2022-12-28T09:07:11;0.90;;;0.80;;
3066;SDS011;1544;48.834;9.194;2022-12-28T09:09:46;1.10;;;0.90;;
3066;SDS011;1544;48.834;9.194;2022-12-28T09:12:21;1.60;;;0.80;;
3066;SDS011;1544;48.834;9.194;2022-12-28T09:14:56;1.40;;;0.70;;
3066;SDS011;1544;48.834;9.194;2022-12-28T09:17:30;1.80;;;0.70;;
3066;SDS011;1544;48.834;9.194;2022-12-28T09:20:05;0.70;;;0.70;;
3066;SDS011;1544;48.834;9.194;2022-12-28T09:22:41;1.37;;;0.90;;
3066;SDS011;1544;48.834;9.194;2022-12-28T09:25:16;1.40;;;0.60;;
3066;SDS011;1544;48.834;9.194;2022-12-28T09:27:51;0.80;;;0.80;;
3066;SDS011;1544;48.834;9.194;2022-12-28T09:30:32;1.10;;;0.70;;
3066;SDS011;1544;48.834;9.194;2022-12-28T09:33:07;1.20;;;0.80;;
3066;SDS011;1544;48.834;9.194;2022-12-28T09:36:00;2.80;;;0.80;;
3066;SDS011;1544;48.834;9.194;2022-12-28T09:38:36;0.93;;;0.83;;
3066;SDS011;1544;48.834;9.194;2022-12-28T09:41:16;1.60;;;0.90;;
3066;SDS011;1544;48.834;9.194;2022-12-28T09:46:55;1.10;;;0.90;;
3066;SDS011;1544;48.834;9.194;2022-12-28T09:49:42;1.27;;;1.00;;
3066;SDS011;1544;48.834;9.194;2022-12-28T09:52:36;5.33;;;1.03;;
3066;SDS011;1544;48.834;9.194;2022-12-28T09:58:35;1.03;;;0.93;;
3066;SDS011;1544;48.834;9.194;2022-12-28T10:01:18;1.10;;;0.80;;
3066;SDS011;1544;48.834;9.194;2022-12-28T10:03:55;0.80;;;0.80;;
3066;SDS011;1544;48.834;9.194;2022-12-28T10:06:35;1.00;;;0.80;;
3066;SDS011;1544;48.834;9.194;2022-12-28T10:09:12;1.03;;;0.70;;
3066;SDS011;1544;48.834;9.194;2022-12-28T10:11:58;2.20;;;0.90;;
3066;SDS011;1544;48.834;9.194;2022-12-28T10:14:35;0.90;;;0.90;;
3066;SDS011;1544;48.834;9.194;2022-12-28T10:17:11;0.70;;;0.60;;
3066;SDS011;1544;48.834;9.194;2022-12-28T10:19:49;0.70;;;0.70;;
3066;SDS011;1544;48.834;9.194;2022-12-28T10:22:24;0.70;;;0.60;;
3066;SDS011;1544;48.834;9.194;2022-12-28T10:25:13;1.10;;;0.70;;
3066;SDS011;1544;48.834;9.194;2022-12-28T10:27:51;1.13;;;0.60;;
3066;SDS011;1544;48.834;9.194;2022-12-28T10:30:26;1.00;;;0.80;;
3066;SDS011;1544;48.834;9.194;2022-12-28T10:33:02;0.70;;;0.70;;
3066;SDS011;1544;48.834;9.194;2022-12-28T10:35:39;1.17;;;0.73;;
3066;SDS011;1544;48.834;9.194;2022-12-28T10:38:31;0.60;;;0.60;;
3066;SDS011;1544;48.834;9.194;2022-12-28T10:41:08;0.70;;;0.70;;
3066;SDS011;1544;48.834;9.194;2022-12-28T10:43:51;0.90;;;0.63;;
3066;SDS011;1544;48.834;9.194;2022-12-28T10:46:55;1.63;;;0.70;;
3066;SDS011;1544;48.834;9.194;2022-12-28T10:49:33;0.67;;;0.67;;
3066;SDS011;1544;48.834;9.194;2022-12-28T10:54:48;0.97;;;0.50;;
3066;SDS011;1544;48.834;9.194;2022-12-28T10:57:41;1.50;;;0.60;;
3066;SDS011;1544;48.834;9.194;2022-12-28T11:00:36;0.60;;;0.60;;
3066;SDS011;1544;48.834;9.194;2022-12-28T11:03:16;0.50;;;0.50;;
3066;SDS011;1544;48.834;9.194;2022-12-28T11:06:09;0.70;;;0.50;;
3066;SDS011;1544;48.834;9.194;2022-12-28T11:08:45;0.50;;;0.50;;
3066;SDS011;1544;48.834;9.194;2022-12-28T11:11:36;0.70;;;0.60;;
3066;SDS011;1544;48.834;9.194;2022-12-28T11:17:17;1.20;;;0.70;;
3066;SDS011;1544;48.834;9.194;2022-12-28T11:20:12;1.00;;;0.50;;
3066;SDS011;1544;48.834;9.194;2022-12-28T11:22:52;1.10;;;0.70;;
3066;SDS011;1544;48.834;9.194;2022-12-28T11:25:29;1.20;;;0.60;;
3066;SDS011;1544;48.834;9.194;2022-12-28T11:28:11;0.90;;;0.60;;
3066;SDS011;1544;48.834;9.194;2022-12-28T11:30:50;0.60;;;0.50;;
3066;SDS011;1544;48.834;9.194;2022-12-28T11:33:41;0.67;;;0.60;;
3066;SDS011;1544;48.834;9.194;2022-12-28T11:36:20;1.67;;;0.70;;
3066;SDS011;1544;48.834;9.194;2022-12-28T11:38:59;0.50;;;0.50;;
3066;SDS011;1544;48.834;9.194;2022-12-28T11:41:59;1.20;;;0.70;;
3066;SDS011;1544;48.834;9.194;2022-12-28T11:44:55;1.57;;;0.50;;
3066;SDS011;1544;48.834;9.194;2022-12-28T11:47:31;3.00;;;0.50;;
3066;SDS011;1544;48.834;9.194;2022-12-28T11:53:19;0.90;;;0.53;;
3066;SDS011;1544;48.834;9.194;2022-12-28T11:56:20;0.53;;;0.53;;
3066;SDS011;1544;48.834;9.194;2022-12-28T12:04:16;0.80;;;0.70;;
3066;SDS011;1544;48.834;9.194;2022-12-28T12:17:39;1.27;;;0.70;;
3066;SDS011;1544;48.834;9.194;2022-12-28T12:20:44;0.87;;;0.67;;
3066;SDS011;1544;48.834;9.194;2022-12-28T12:23:33;0.70;;;0.57;;
3066;SDS011;1544;48.834;9.194;2022-12-28T12:26:24;1.27;;;0.53;;
3066;SDS011;1544;48.834;9.194;2022-12-28T12:29:10;1.03;;;0.63;;
3066;SDS011;1544;48.834;9.194;2022-12-28T12:31:55;0.67;;;0.67;;
3066;SDS011;1544;48.834;9.194;2022-12-28T12:34:45;1.17;;;0.70;;
3066;SDS011;1544;48.834;9.194;2022-12-28T13:01:36;0.60;;;0.53;;
3066;SDS011;1544;48.834;9.194;2022-12-28T13:04:36;0.90;;;0.70;;
3066;SDS011;1544;48.834;9.194;2022-12-28T13:07:24;0.60;;;0.60;;
3066;SDS011;1544;48.834;9.194;2022-12-28T13:10:01;0.60;;;0.50;;
3066;SDS011;1544;48.834;9.194;2022-12-28T13:12:38;0.67;;;0.67;;
3066;SDS011;1544;48.834;9.194;2022-12-28T13:15:14;0.70;;;0.70;;
3066;SDS011;1544;48.834;9.194;2022-12-28T13:18:01;1.13;;;0.70;;
3066;SDS011;1544;48.834;9.194;2022-12-28T13:20:59;0.90;;;0.70;;
3066;SDS011;1544;48.834;9.194;2022-12-28T13:23:46;0.90;;;0.70;;
3066;SDS011;1544;48.834;9.194;2022-12-28T13:26:28;0.90;;;0.90;;
3066;SDS011;1544;48.834;9.194;2022-12-28T13:29:07;0.53;;;0.53;;
3066;SDS011;1544;48.834;9.194;2022-12-28T13:31:43;0.70;;;0.70;;
3066;SDS011;1544;48.834;9.194;2022-12-28T13:34:25;0.90;;;0.60;;
3066;SDS011;1544;48.834;9.194;2022-12-28T13:37:10;1.80;;;1.20;;
3066;SDS011;1544;48.834;9.194;2022-12-28T13:39:48;1.23;;;0.70;;
3066;SDS011;1544;48.834;9.194;2022-12-28T13:42:28;1.10;;;0.80;;
3066;SDS011;1544;48.834;9.194;2022-12-28T13:45:09;1.10;;;0.80;;
3066;SDS011;1544;48.834;9.194;2022-12-28T13:47:49;1.00;;;0.80;;
3066;SDS011;1544;48.834;9.194;2022-12-28T13:50:27;0.70;;;0.70;;
3066;SDS011;1544;48.834;9.194;2022-12-28T13:53:07;0.60;;;0.60;;
3066;SDS011;1544;48.834;9.194;2022-12-28T13:55:51;1.40;;;0.90;;
3066;SDS011;1544;48.834;9.194;2022-12-28T13:58:41;1.53;;;0.80;;
3066;SDS011;1544;48.834;9.194;2022-12-28T14:01:23;0.70;;;0.70;;
3066;SDS011;1544;48.834;9.194;2022-12-28T14:04:05;1.20;;;1.10;;
3066;SDS011;1544;48.834;9.194;2022-12-28T14:07:10;1.27;;;0.90;;
3066;SDS011;1544;48.834;9.194;2022-12-28T14:09:46;1.00;;;0.90;;
3066;SDS011;1544;48.834;9.194;2022-12-28T14:12:23;1.60;;;0.90;;
3066;SDS011;1544;48.834;9.194;2022-12-28T14:14:58;0.90;;;0.80;;
3066;SDS011;1544;48.834;9.194;2022-12-28T14:17:36;2.50;;;1.07;;
3066;SDS011;1544;48.834;9.194;2022-12-28T14:20:12;1.50;;;1.00;;
3066;SDS011;1544;48.834;9.194;2022-12-28T14:22:47;1.53;;;1.00;;
3066;SDS011;1544;48.834;9.194;2022-12-28T14:25:22;1.30;;;0.90;;
3066;SDS011;1544;48.834;9.194;2022-12-28T14:27:59;2.10;;;0.90;;
3066;SDS011;1544;48.834;9.194;2022-12-28T14:30:40;0.90;;;0.90;;
3066;SDS011;1544;48.834;9.194;2022-12-28T14:33:17;1.03;;;0.80;;
3066;SDS011;1544;48.834;9.194;2022-12-28T14:36:00;1.10;;;1.00;;
3066;SDS011;1544;48.834;9.194;2022-12-28T14:38:39;0.87;;;0.87;;
3066;SDS011;1544;48.834;9.194;2022-12-28T14:41:39;0.90;;;0.90;;
3066;SDS011;1544;48.834;9.194;2022-12-28T14:44:24;1.20;;;1.10;;
3066;SDS011;1544;48.834;9.194;2022-12-28T14:50:26;1.00;;;0.90;;
3066;SDS011;1544;48.834;9.194;2022-12-28T14:53:08;0.80;;;0.80;;
3066;SDS011;1544;48.834;9.194;2022-12-28T14:58:43;3.37;;;1.23;;
3066;SDS011;1544;48.834;9.194;2022-12-28T15:01:41;1.10;;;1.00;;
3066;SDS011;1544;48.834;9.194;2022-12-28T15:07:11;1.80;;;1.40;;
3066;SDS011;1544;48.834;9.194;2022-12-28T15:09:49;1.53;;;1.10;;
3066;SDS011;1544;48.834;9.194;2022-12-28T15:12:24;1.60;;;0.80;;
3066;SDS011;1544;48.834;9.194;2022-12-28T15:14:59;2.00;;;1.00;;
3066;SDS011;1544;48.834;9.194;2022-12-28T15:17:34;1.43;;;1.33;;
3066;SDS011;1544;48.834;9.194;2022-12-28T15:20:09;1.97;;;0.90;;
3066;SDS011;1544;48.834;9.194;2022-12-28T15:22:46;1.27;;;1.00;;
3066;SDS011;1544;48.834;9.194;2022-12-28T15:25:22;0.90;;;0.87;;
3066;SDS011;1544;48.834;9.194;2022-12-28T15:27:57;1.67;;;1.57;;
3066;SDS011;1544;48.834;9.194;2022-12-28T15:30:32;1.20;;;1.10;;
3066;SDS011;1544;48.834;9.194;2022-12-28T15:33:08;1.20;;;1.10;;
3066;SDS011;1544;48.834;9.194;2022-12-28T15:35:44;1.10;;;1.00;;
3066;SDS011;1544;48.834;9.194;2022-12-28T15:38:19;2.43;;;1.10;;
3066;SDS011;1544;48.834;9.194;2022-12-28T15:40:54;3.00;;;0.90;;
3066;SDS011;1544;48.834;9.194;2022-12-28T15:43:29;1.27;;;1.00;;
3066;SDS011;1544;48.834;9.194;2022-12-28T15:46:04;2.83;;;1.10;;
3066;SDS011;1544;48.834;9.194;2022-12-28T15:48:39;1.93;;;1.10;;
3066;SDS011;1544;48.834;9.194;2022-12-28T15:51:20;1.17;;;1.07;;
3066;SDS011;1544;48.834;9.194;2022-12-28T15:53:55;1.67;;;1.17;;
3066;SDS011;1544;48.834;9.194;2022-12-28T15:56:31;1.33;;;1.23;;
3066;SDS011;1544;48.834;9.194;2022-12-28T15:59:12;1.40;;;0.97;;
3066;SDS011;1544;48.834;9.194;2022-12-28T16:01:47;1.33;;;1.10;;
3066;SDS011;1544;48.834;9.194;2022-12-28T16:04:25;1.20;;;1.00;;
3066;SDS011;1544;48.834;9.194;2022-12-28T16:07:00;1.67;;;1.20;;
3066;SDS011;1544;48.834;9.194;2022-12-28T16:09:35;1.57;;;1.00;;
3066;SDS011;1544;48.834;9.194;2022-12-28T16:12:10;2.40;;;1.10;;
3066;SDS011;1544;48.834;9.194;2022-12-28T16:14:50;1.47;;;1.37;;
3066;SDS011;1544;48.834;9.194;2022-12-28T16:17:25;3.10;;;1.17;;
3066;SDS011;1544;48.834;9.194;2022-12-28T16:20:00;2.77;;;1.83;;
3066;SDS011;1544;48.834;9.194;2022-12-28T16:22:35;1.67;;;1.57;;
3066;SDS011;1544;48.834;9.194;2022-12-28T16:25:10;4.43;;;1.83;;
3066;SDS011;1544;48.834;9.194;2022-12-28T16:27:45;3.57;;;1.40;;
3066;SDS011;1544;48.834;9.194;2022-12-28T16:30:19;1.57;;;1.47;;
3066;SDS011;1544;48.834;9.194;2022-12-28T16:32:54;2.73;;;1.50;;
3066;SDS011;1544;48.834;9.194;2022-12-28T16:35:29;1.47;;;1.37;;
3066;SDS011;1544;48.834;9.194;2022-12-28T16:38:04;1.57;;;1.30;;
3066;SDS011;1544;48.834;9.194;2022-12-28T16:40:39;1.70;;;1.60;;
3066;SDS011;1544;48.834;9.194;2022-12-28T16:43:15;1.40;;;1.30;;
3066;SDS011;1544;48.834;9.194;2022-12-28T16:45:51;4.30;;;1.30;;
3066;SDS011;1544;48.834;9.194;2022-12-28T16:48:26;1.63;;;1.10;;
3066;SDS011;1544;48.834;9.194;2022-12-28T16:51:01;1.27;;;1.17;;
3066;SDS011;1544;48.834;9.194;2022-12-28T16:53:37;1.30;;;1.20;;
3066;SDS011;1544;48.834;9.194;2022-12-28T16:56:12;1.30;;;1.20;;
3066;SDS011;1544;48.834;9.194;2022-12-28T16:58:47;1.10;;;1.00;;
3066;SDS011;1544;48.834;9.194;2022-12-28T17:01:22;1.23;;;1.13;;
3066;SDS011;1544;48.834;9.194;2022-12-28T17:03:57;1.20;;;1.10;;
3066;SDS011;1544;48.834;9.194;2022-12-28T17:06:38;1.30;;;1.00;;
3066;SDS011;1544;48.834;9.194;2022-12-28T17:09:14;1.80;;;1.30;;
3066;SDS011;1544;48.834;9.194;2022-12-28T17:11:49;1.63;;;1.53;;
3066;SDS011;1544;48.834;9.194;2022-12-28T17:14:24;1.77;;;1.20;;
3066;SDS011;1544;48.834;9.194;2022-12-28T17:17:14;1.43;;;1.20;;
3066;SDS011;1544;48.834;9.194;2022-12-28T17:19:50;1.20;;;1.10;;
3066;SDS011;1544;48.834;9.194;2022-12-28T17:22:25;2.13;;;1.40;;
3066;SDS011;1544;48.834;9.194;2022-12-28T17:25:01;2.10;;;1.90;;
3066;SDS011;1544;48.834;9.194;2022-12-28T17:27:36;1.33;;;1.23;;
3066;SDS011;1544;48.834;9.194;2022-12-28T17:30:11;1.20;;;1.10;;
3066;SDS011;1544;48.834;9.194;2022-12-28T17:32:46;1.50;;;1.40;;
3066;SDS011;1544;48.834;9.194;2022-12-28T17:35:21;1.60;;;1.30;;
3066;SDS011;1544;48.834;9.194;2022-12-28T17:37:56;2.00;;;1.40;;
3066;SDS011;1544;48.834;9.194;2022-12-28T17:40:31;2.93;;;1.50;;
3066;SDS011;1544;48.834;9.194;2022-12-28T17:43:06;1.60;;;1.50;;
3066;SDS011;1544;48.834;9.194;2022-12-28T17:45:41;2.90;;;1.60;;
3066;SDS011;1544;48.834;9.194;2022-12-28T17:48:17;2.20;;;1.87;;
3066;SDS011;1544;48.834;9.194;2022-12-28T17:50:53;1.90;;;1.80;;
3066;SDS011;1544;48.834;9.194;2022-12-28T17:53:28;3.33;;;3.03;;
3066;SDS011;1544;48.834;9.194;2022-12-28T17:56:05;3.43;;;2.50;;